createdAt,value
2019-05-20T00:02:23.573Z,3.60
2019-05-20T00:04:57.893Z,3.90
2019-05-20T00:07:47.685Z,4.30
2019-05-20T00:10:37.504Z,4.00
2019-05-20T00:13:27.296Z,4.40
2019-05-20T00:16:17.338Z,4.40
2019-05-20T00:18:48.043Z,4.57
2019-05-20T00:21:30.984Z,4.43
2019-05-20T00:24:20.687Z,4.77
2019-05-20T00:27:10.528Z,5.30
2019-05-20T00:29:57.854Z,5.87
2019-05-20T00:32:41.792Z,6.10
2019-05-20T00:35:31.580Z,5.73
2019-05-20T00:38:14.511Z,5.87
2019-05-20T00:41:04.259Z,5.77
2019-05-20T00:43:46.373Z,5.63
2019-05-20T00:49:37.554Z,5.63
2019-05-20T00:52:27.429Z,6.13
2019-05-20T00:55:15.323Z,5.97
2019-05-20T00:58:05.072Z,6.33
2019-05-20T01:00:49.508Z,6.63
2019-05-20T01:03:39.372Z,6.67
2019-05-20T01:06:22.819Z,7.10
2019-05-20T01:09:12.573Z,7.53
2019-05-20T01:11:54.842Z,6.87
2019-05-20T01:17:45.751Z,7.00
2019-05-20T01:20:28.149Z,7.43
2019-05-20T01:23:17.951Z,7.03
2019-05-20T01:26:07.759Z,7.60
2019-05-20T01:28:58.447Z,7.60
2019-05-20T01:31:48.251Z,7.50
2019-05-20T01:34:38.159Z,8.07
2019-05-20T01:37:27.945Z,8.47
2019-05-20T01:40:17.719Z,7.70
2019-05-20T01:46:11.157Z,6.93
2019-05-20T01:48:53.546Z,7.10
2019-05-20T01:51:37.595Z,6.70
2019-05-20T01:54:27.389Z,7.97
2019-05-20T01:57:17.113Z,7.80
2019-05-20T02:00:46.447Z,7.40
2019-05-20T02:03:36.145Z,7.60
2019-05-20T02:09:21.936Z,8.80
2019-05-20T02:11:52.602Z,8.33
2019-05-20T02:17:45.940Z,7.10
2019-05-20T02:20:35.728Z,7.13
2019-05-20T02:23:18.456Z,6.57
2019-05-20T02:26:08.310Z,6.63
2019-05-20T02:28:58.089Z,6.70
2019-05-20T02:31:47.778Z,6.90
2019-05-20T02:34:37.500Z,6.13
2019-05-20T02:37:27.430Z,6.13
2019-05-20T02:40:09.854Z,5.73
2019-05-20T02:42:59.744Z,5.77
2019-05-20T02:45:49.517Z,5.47
2019-05-20T02:48:39.263Z,4.97
2019-05-20T02:51:31.419Z,4.80
2019-05-20T02:54:22.054Z,4.23
2019-05-20T02:57:11.928Z,3.67
2019-05-20T02:59:54.786Z,3.70
2019-05-20T03:02:44.547Z,3.50
2019-05-20T03:05:34.277Z,4.03
2019-05-20T03:08:24.016Z,4.00
2019-05-20T03:11:06.140Z,4.40
2019-05-20T03:14:14.950Z,4.50
2019-05-20T03:16:57.668Z,4.80
2019-05-20T03:19:47.739Z,5.07
2019-05-20T03:22:29.946Z,5.27
2019-05-20T03:25:19.702Z,5.27
2019-05-20T03:28:02.217Z,5.00
2019-05-20T03:30:51.937Z,5.23
2019-05-20T03:33:34.724Z,5.10
2019-05-20T03:36:24.454Z,5.33
2019-05-20T03:39:07.272Z,5.30
2019-05-20T03:42:17.573Z,4.67
2019-05-20T03:45:00.209Z,4.73
2019-05-20T03:47:49.950Z,4.47
2019-05-20T03:50:32.639Z,3.90
2019-05-20T03:53:22.696Z,4.50
2019-05-20T03:56:04.682Z,4.10
2019-05-20T03:58:54.413Z,4.07
2019-05-20T04:01:36.846Z,4.50
2019-05-20T04:04:26.950Z,4.60
2019-05-20T04:07:09.516Z,4.20
2019-05-20T04:09:59.212Z,4.33
2019-05-20T04:12:41.531Z,4.23
2019-05-20T04:15:31.273Z,4.03
2019-05-20T04:18:13.692Z,4.40
2019-05-20T04:21:03.747Z,4.90
2019-05-20T04:23:34.747Z,4.90
2019-05-20T04:26:24.470Z,5.03
2019-05-20T04:29:06.749Z,5.20
2019-05-20T04:31:56.502Z,5.37
2019-05-20T04:34:39.386Z,5.10
2019-05-20T04:37:29.102Z,5.17
2019-05-20T04:40:12.062Z,5.70
2019-05-20T04:43:01.800Z,5.67
2019-05-20T04:45:44.575Z,5.43
2019-05-20T04:48:34.304Z,5.30
2019-05-20T04:51:16.795Z,5.87
2019-05-20T04:54:06.537Z,5.80
2019-05-20T04:56:48.603Z,5.83
2019-05-20T04:59:38.319Z,5.53
2019-05-20T05:02:28.032Z,5.57
2019-05-20T05:05:10.575Z,5.47
2019-05-20T05:08:00.499Z,5.30
2019-05-20T05:11:09.483Z,5.73
2019-05-20T05:13:59.282Z,5.63
2019-05-20T05:16:49.107Z,6.10
2019-05-20T05:19:38.985Z,5.67
2019-05-20T05:22:28.920Z,5.60
2019-05-20T05:25:18.729Z,5.80
2019-05-20T05:28:08.627Z,6.00
2019-05-20T05:30:58.630Z,5.87
2019-05-20T05:33:48.358Z,5.03
2019-05-20T05:36:38.197Z,4.90
2019-05-20T05:39:20.668Z,4.70
2019-05-20T05:42:10.545Z,5.53
2019-05-20T05:45:00.472Z,5.17
2019-05-20T05:47:50.210Z,4.90
2019-05-20T05:50:39.950Z,4.30
2019-05-20T05:53:23.735Z,4.20
2019-05-20T05:56:06.577Z,4.20
2019-05-20T05:59:09.123Z,3.90
2019-05-20T06:01:51.755Z,3.50
2019-05-20T06:04:41.485Z,3.47
2019-05-20T06:07:24.805Z,3.63
2019-05-20T06:10:14.651Z,3.77
2019-05-20T06:12:57.780Z,3.30
2019-05-20T06:15:47.483Z,3.47
2019-05-20T06:18:29.627Z,3.67
2019-05-20T06:21:19.383Z,3.17
2019-05-20T06:24:02.139Z,3.00
2019-05-20T06:26:51.861Z,3.20
2019-05-20T06:29:34.489Z,3.53
2019-05-20T06:32:24.191Z,3.47
2019-05-20T06:35:08.296Z,3.40
2019-05-20T06:41:01.344Z,3.40
2019-05-20T06:43:51.062Z,3.47
2019-05-20T06:46:37.409Z,3.00
2019-05-20T06:49:27.149Z,3.40
2019-05-20T06:52:09.319Z,3.03
2019-05-20T06:54:59.088Z,2.40
2019-05-20T06:57:41.796Z,2.40
2019-05-20T07:03:50.521Z,2.77
2019-05-20T07:06:46.915Z,3.00
2019-05-20T07:09:24.527Z,2.90
2019-05-20T07:12:41.333Z,2.90
2019-05-20T07:15:17.578Z,3.10
2019-05-20T07:18:07.431Z,2.97
2019-05-20T07:20:57.251Z,2.80
2019-05-20T07:23:46.965Z,3.03
2019-05-20T07:26:28.939Z,3.20
2019-05-20T07:29:18.733Z,3.00
2019-05-20T07:32:08.585Z,2.70
2019-05-20T07:34:58.346Z,2.80
2019-05-20T07:37:48.515Z,2.50
2019-05-20T07:40:38.322Z,2.90
2019-05-20T07:43:28.037Z,2.77
2019-05-20T07:46:10.345Z,3.00
2019-05-20T07:49:00.409Z,2.57
2019-05-20T07:51:42.641Z,1.30
2019-05-20T07:54:32.559Z,1.30
2019-05-20T07:57:42.875Z,1.13
2019-05-20T08:00:25.049Z,1.40
2019-05-20T08:03:14.990Z,1.00
2019-05-20T08:06:04.813Z,0.90
2019-05-20T08:08:54.617Z,1.33
2019-05-20T08:11:44.375Z,1.30
2019-05-20T08:14:34.201Z,1.30
2019-05-20T08:17:23.982Z,1.40
2019-05-20T08:20:13.816Z,1.07
2019-05-20T08:23:03.569Z,0.93
2019-05-20T08:25:53.613Z,1.53
2019-05-20T08:31:47.089Z,1.10
2019-05-20T08:34:29.563Z,1.20
2019-05-20T08:37:19.441Z,0.80
2019-05-20T08:40:09.197Z,1.13
2019-05-20T08:42:39.929Z,1.10
2019-05-20T08:48:19.477Z,1.13
2019-05-20T08:51:01.960Z,1.73
2019-05-20T08:53:51.699Z,1.00
2019-05-20T08:56:35.205Z,1.00
2019-05-20T08:59:17.372Z,0.73
2019-05-20T09:02:07.218Z,1.10
2019-05-20T09:04:49.945Z,1.67
2019-05-20T09:07:39.783Z,1.50
2019-05-20T09:10:29.816Z,3.50
2019-05-20T09:13:19.596Z,3.37
2019-05-20T09:16:09.363Z,2.00
2019-05-20T09:18:59.167Z,2.00
2019-05-20T09:21:49.002Z,2.17
2019-05-20T09:24:38.775Z,2.70
2019-05-20T09:27:28.543Z,2.60
2019-05-20T09:30:11.169Z,2.70
2019-05-20T09:33:00.903Z,2.30
2019-05-20T09:35:44.802Z,2.70
2019-05-20T09:38:36.884Z,3.10
2019-05-20T09:41:18.238Z,2.93
2019-05-20T09:44:07.917Z,2.77
2019-05-20T09:46:50.352Z,3.00
2019-05-20T09:49:40.278Z,2.97
2019-05-20T09:52:22.265Z,2.80
2019-05-20T09:55:11.983Z,2.77
2019-05-20T09:57:54.960Z,2.73
2019-05-20T10:00:44.885Z,2.40
2019-05-20T10:03:27.336Z,2.27
2019-05-20T10:06:17.122Z,2.27
2019-05-20T10:08:59.928Z,2.37
2019-05-20T10:11:49.703Z,2.40
2019-05-20T10:14:35.738Z,2.20
2019-05-20T10:17:25.456Z,2.00
2019-05-20T10:20:07.739Z,3.50
2019-05-20T10:26:00.113Z,2.30
2019-05-20T10:28:49.839Z,1.70
2019-05-20T10:31:32.639Z,1.60
2019-05-20T10:34:22.368Z,1.70
2019-05-20T10:37:05.146Z,1.60
2019-05-20T10:39:54.938Z,1.80
2019-05-20T10:42:40.355Z,1.63
2019-05-20T10:45:30.165Z,2.30
2019-05-20T10:48:12.545Z,2.50
2019-05-20T10:51:02.270Z,1.63
2019-05-20T10:53:46.385Z,1.90
2019-05-20T10:56:36.101Z,2.00
2019-05-20T10:59:18.016Z,1.87
2019-05-20T11:02:07.949Z,2.00
2019-05-20T11:04:50.163Z,2.20
2019-05-20T11:07:40.019Z,2.17
2019-05-20T11:10:29.886Z,1.90
2019-05-20T11:13:19.652Z,1.67
2019-05-20T11:16:09.821Z,1.73
2019-05-20T11:22:03.363Z,1.10
2019-05-20T11:24:46.349Z,1.10
2019-05-20T11:27:36.093Z,1.00
2019-05-20T11:30:25.943Z,1.13
2019-05-20T11:33:15.679Z,2.53
2019-05-20T11:35:57.943Z,0.90
2019-05-20T11:38:47.700Z,1.17
2019-05-20T11:41:52.274Z,1.10
2019-05-20T11:44:21.718Z,1.10
2019-05-20T11:47:05.858Z,1.03
2019-05-20T11:49:55.589Z,0.77
2019-05-20T11:52:38.011Z,1.33
2019-05-20T11:55:27.768Z,0.60
2019-05-20T11:58:15.665Z,0.50
2019-05-20T12:01:01.709Z,3.67
2019-05-20T12:03:44.080Z,0.67
2019-05-20T12:06:33.897Z,0.77
2019-05-20T12:09:16.375Z,0.70
2019-05-20T12:12:06.080Z,0.73
2019-05-20T12:14:48.612Z,0.90
2019-05-20T12:17:38.379Z,1.03
2019-05-20T12:20:28.101Z,0.93
2019-05-20T12:23:10.176Z,0.90
2019-05-20T12:26:12.533Z,1.00
2019-05-20T12:28:55.450Z,0.77
2019-05-20T12:31:45.203Z,0.87
2019-05-20T12:34:28.166Z,1.37
2019-05-20T12:37:17.978Z,0.90
2019-05-20T12:40:07.119Z,1.30
2019-05-20T12:42:51.731Z,0.97
2019-05-20T12:45:34.052Z,1.70
2019-05-20T12:48:23.743Z,1.37
2019-05-20T12:51:06.461Z,1.40
2019-05-20T12:53:56.185Z,1.17
2019-05-20T12:56:38.144Z,1.27
2019-05-20T13:02:29.126Z,1.20
2019-05-20T13:05:18.936Z,1.10
2019-05-20T13:08:05.761Z,0.90
2019-05-20T13:10:56.895Z,0.80
2019-05-20T13:13:39.516Z,1.27
2019-05-20T13:16:29.259Z,1.10
2019-05-20T13:19:12.608Z,1.07
2019-05-20T13:22:02.736Z,1.60
2019-05-20T13:24:46.247Z,0.93
2019-05-20T13:27:36.266Z,2.10
2019-05-20T13:30:20.196Z,0.87
2019-05-20T13:33:09.948Z,1.07
2019-05-20T13:35:51.942Z,1.53
2019-05-20T13:38:41.724Z,1.50
2019-05-20T13:41:24.524Z,0.90
2019-05-20T13:44:14.243Z,1.23
2019-05-20T13:46:56.990Z,1.10
2019-05-20T13:49:46.717Z,0.83
2019-05-20T13:52:29.296Z,0.70
2019-05-20T13:55:19.078Z,0.67
2019-05-20T13:58:08.829Z,0.90
2019-05-20T14:00:51.149Z,1.30
2019-05-20T14:03:40.890Z,1.50
2019-05-20T14:06:30.627Z,1.40
2019-05-20T14:09:20.370Z,2.00
2019-05-20T14:12:02.653Z,1.10
2019-05-20T14:14:52.352Z,1.20
2019-05-20T14:17:42.121Z,1.27
2019-05-20T14:20:24.713Z,0.70
2019-05-20T14:23:33.577Z,0.87
2019-05-20T14:29:19.425Z,1.30
2019-05-20T14:32:09.122Z,0.80
2019-05-20T14:34:51.515Z,0.80
2019-05-20T14:37:41.272Z,0.90
2019-05-20T14:40:23.814Z,1.17
2019-05-20T14:43:13.519Z,1.10
2019-05-20T14:45:55.972Z,6.13
2019-05-20T14:48:45.730Z,1.00
2019-05-20T14:51:27.807Z,2.60
2019-05-20T14:54:17.850Z,1.50
2019-05-20T14:56:59.897Z,1.50
2019-05-20T14:59:49.657Z,1.20
2019-05-20T15:02:31.789Z,2.40
2019-05-20T15:05:21.506Z,1.50
2019-05-20T15:08:03.751Z,1.23
2019-05-20T15:10:53.459Z,3.13
2019-05-20T15:13:36.028Z,1.23
2019-05-20T15:16:25.763Z,0.90
2019-05-20T15:19:09.321Z,1.50
2019-05-20T15:21:59.058Z,1.17
2019-05-20T15:24:41.310Z,1.53
2019-05-20T15:27:31.048Z,1.30
2019-05-20T15:30:13.397Z,1.80
2019-05-20T15:33:22.238Z,2.43
2019-05-20T15:36:04.917Z,2.80
2019-05-20T15:38:54.668Z,1.97
2019-05-20T15:41:37.569Z,1.80
2019-05-20T15:44:27.303Z,1.83
2019-05-20T15:47:09.591Z,2.00
2019-05-20T15:49:59.453Z,2.77
2019-05-20T15:52:42.661Z,2.93
2019-05-20T15:55:32.691Z,2.13
2019-05-20T15:58:15.382Z,2.20
2019-05-20T16:01:05.139Z,2.33
2019-05-20T16:03:51.147Z,1.70
2019-05-20T16:06:38.791Z,2.10
2019-05-20T16:09:20.787Z,1.60
2019-05-20T16:12:10.531Z,1.67
2019-05-20T16:14:53.032Z,1.97
2019-05-20T16:17:42.796Z,1.60
2019-05-20T16:20:25.710Z,1.70
2019-05-20T16:23:15.445Z,1.70
2019-05-20T16:26:05.154Z,2.13
2019-05-20T16:28:52.982Z,1.83
2019-05-20T16:31:35.079Z,2.20
2019-05-20T16:34:24.880Z,2.17
2019-05-20T16:37:14.689Z,1.93
2019-05-20T16:40:04.916Z,1.83
2019-05-20T16:42:54.671Z,1.77
2019-05-20T16:45:45.172Z,2.37
2019-05-20T16:48:34.910Z,2.27
2019-05-20T16:51:17.815Z,2.30
2019-05-20T16:54:00.664Z,2.33
2019-05-20T16:56:50.482Z,2.60
2019-05-20T16:59:32.846Z,2.83
2019-05-20T17:02:35.553Z,2.50
2019-05-20T17:05:18.012Z,2.60
2019-05-20T17:08:07.761Z,2.30
2019-05-20T17:10:49.742Z,2.70
2019-05-20T17:13:39.535Z,5.33
2019-05-20T17:16:21.691Z,3.50
2019-05-20T17:19:11.438Z,3.53
2019-05-20T17:21:55.434Z,3.17
2019-05-20T17:30:15.542Z,2.77
2019-05-20T17:33:05.313Z,3.57
2019-05-20T17:35:47.877Z,3.07
2019-05-20T17:38:37.734Z,3.00
2019-05-20T17:41:27.952Z,3.03
2019-05-20T17:44:17.760Z,3.33
2019-05-20T17:47:07.759Z,3.60
2019-05-20T17:49:57.595Z,3.80
2019-05-20T17:52:47.350Z,3.93
2019-05-20T17:55:31.190Z,4.00
2019-05-20T17:58:20.939Z,4.00
2019-05-20T18:01:15.268Z,4.30
2019-05-20T18:03:55.324Z,4.30
2019-05-20T18:06:45.257Z,4.60
2019-05-20T18:12:32.134Z,4.80
2019-05-20T18:15:21.883Z,5.03
2019-05-20T18:18:04.614Z,5.33
2019-05-20T18:20:56.503Z,5.13
2019-05-20T18:23:38.499Z,5.40
2019-05-20T18:26:29.095Z,4.90
2019-05-20T18:29:11.778Z,5.73
2019-05-20T18:32:01.857Z,5.10
2019-05-20T18:34:44.775Z,4.73
2019-05-20T18:37:34.533Z,4.90
2019-05-20T18:40:17.282Z,4.93
2019-05-20T18:43:07.325Z,4.80
2019-05-20T18:45:49.675Z,4.97
2019-05-20T18:48:39.631Z,4.77
2019-05-20T18:51:22.016Z,4.27
2019-05-20T18:54:11.995Z,4.13
2019-05-20T18:56:56.893Z,4.27
2019-05-20T18:59:46.661Z,3.97
2019-05-20T19:02:33.074Z,6.17
2019-05-20T19:08:25.694Z,4.83
2019-05-20T19:11:15.490Z,4.97
2019-05-20T19:13:58.205Z,5.60
2019-05-20T19:20:05.280Z,8.40
2019-05-20T19:22:49.406Z,10.30
2019-05-20T19:25:37.898Z,11.07
2019-05-20T19:28:24.331Z,13.20
2019-05-20T19:34:21.720Z,13.27
2019-05-20T19:37:04.656Z,12.20
2019-05-20T19:40:13.667Z,12.27
2019-05-20T19:43:03.532Z,14.07
2019-05-20T19:45:53.492Z,13.17
2019-05-20T19:48:43.222Z,14.20
2019-05-20T19:51:32.985Z,13.50
2019-05-20T19:54:22.770Z,14.77
2019-05-20T19:57:06.254Z,15.00
2019-05-20T20:02:57.933Z,16.43
2019-05-20T20:05:47.711Z,17.17
2019-05-20T20:08:30.485Z,17.10
2019-05-20T20:11:20.346Z,18.33
2019-05-20T20:14:02.553Z,19.13
2019-05-20T20:16:52.420Z,18.47
2019-05-20T20:19:34.880Z,19.43
2019-05-20T20:22:24.739Z,19.10
2019-05-20T20:25:08.180Z,20.13
2019-05-20T20:28:17.570Z,18.90
2019-05-20T20:31:00.282Z,20.17
2019-05-20T20:33:50.021Z,20.20
2019-05-20T20:36:34.120Z,19.43
2019-05-20T20:39:24.858Z,20.07
2019-05-20T20:42:07.061Z,19.07
2019-05-20T20:45:18.747Z,19.73
2019-05-20T20:48:02.040Z,17.93
2019-05-20T20:50:52.374Z,18.50
2019-05-20T20:53:35.449Z,18.73
2019-05-20T20:56:25.761Z,18.07
2019-05-20T20:59:08.714Z,18.67
2019-05-20T21:02:00.118Z,18.40
2019-05-20T21:04:42.311Z,17.00
2019-05-20T21:07:32.448Z,16.87
2019-05-20T21:10:15.556Z,16.50
2019-05-20T21:12:46.486Z,16.17
2019-05-20T21:15:36.292Z,15.97
2019-05-20T21:18:23.368Z,16.60
2019-05-20T21:21:13.665Z,15.87
2019-05-20T21:24:03.426Z,15.20
2019-05-20T21:29:45.060Z,15.50
2019-05-20T21:32:29.475Z,15.70
2019-05-20T21:40:39.285Z,14.77
2019-05-20T21:43:29.611Z,15.33
2019-05-20T21:46:00.253Z,15.93
2019-05-20T21:48:50.153Z,14.87
2019-05-20T21:51:32.314Z,15.43
2019-05-20T21:54:22.176Z,15.20
2019-05-20T21:57:12.012Z,13.97
2019-05-20T22:00:01.817Z,14.93
2019-05-20T22:02:51.783Z,15.00
2019-05-20T22:05:54.809Z,14.77
2019-05-20T22:08:25.822Z,13.33
2019-05-20T22:14:17.161Z,19.87
2019-05-20T22:17:07.620Z,13.90
2019-05-20T22:19:50.020Z,14.10
2019-05-20T22:22:58.757Z,13.93
2019-05-20T22:26:07.753Z,13.80
2019-05-20T22:29:16.667Z,14.20
2019-05-20T22:32:06.405Z,13.33
2019-05-20T22:34:53.512Z,12.63
2019-05-20T22:37:40.493Z,14.03
2019-05-20T22:40:30.311Z,12.40
2019-05-20T22:46:26.217Z,13.37
2019-05-20T22:49:10.677Z,13.37
2019-05-20T22:52:00.611Z,12.80
2019-05-20T22:54:42.777Z,12.87
2019-05-20T22:57:32.583Z,12.60
2019-05-20T23:00:22.559Z,13.97
2019-05-20T23:03:12.067Z,13.17
2019-05-20T23:05:54.565Z,13.17
2019-05-20T23:08:44.380Z,12.27
2019-05-20T23:11:26.914Z,12.80
2019-05-20T23:14:16.999Z,12.30
2019-05-20T23:17:00.161Z,11.87
2019-05-20T23:19:52.454Z,12.87
2019-05-20T23:22:56.358Z,11.10
2019-05-20T23:25:40.825Z,11.37
2019-05-20T23:28:30.913Z,12.00
2019-05-20T23:31:01.686Z,11.43
2019-05-20T23:33:51.583Z,11.80
2019-05-20T23:36:41.391Z,11.70
2019-05-20T23:39:46.143Z,12.10
2019-05-20T23:42:17.257Z,11.87
2019-05-20T23:44:48.038Z,11.77
2019-05-20T23:47:18.713Z,12.00
2019-05-20T23:49:49.421Z,11.63
2019-05-20T23:52:39.235Z,11.70
2019-05-20T23:55:29.086Z,12.00
2019-05-20T23:58:18.885Z,10.37
